sensor_id;sensor_type;location;lat;lon;timestamp;P1;durP1;ratioP1;P2;durP2;ratioP2
12871;SDS011;6504;53.766;9.626;2022-07-29T00:01:40;3.10;;;1.60;;
12871;SDS011;6504;53.766;9.626;2022-07-29T00:04:12;2.77;;;1.60;;
12871;SDS011;6504;53.766;9.626;2022-07-29T00:06:40;1.70;;;1.50;;
12871;SDS011;6504;53.766;9.626;2022-07-29T00:09:09;1.53;;;1.43;;
12871;SDS011;6504;53.766;9.626;2022-07-29T00:11:38;2.50;;;1.80;;
12871;SDS011;6504;53.766;9.626;2022-07-29T00:14:08;2.03;;;1.70;;
12871;SDS011;6504;53.766;9.626;2022-07-29T00:16:37;2.20;;;1.57;;
12871;SDS011;6504;53.766;9.626;2022-07-29T00:19:05;2.23;;;1.70;;
12871;SDS011;6504;53.766;9.626;2022-07-29T00:21:33;1.90;;;1.40;;
12871;SDS011;6504;53.766;9.626;2022-07-29T00:24:05;3.23;;;1.50;;
12871;SDS011;6504;53.766;9.626;2022-07-29T00:26:33;2.77;;;2.10;;
12871;SDS011;6504;53.766;9.626;2022-07-29T00:29:03;2.60;;;1.53;;
12871;SDS011;6504;53.766;9.626;2022-07-29T00:31:51;1.93;;;1.67;;
12871;SDS011;6504;53.766;9.626;2022-07-29T00:34:20;2.57;;;1.80;;
12871;SDS011;6504;53.766;9.626;2022-07-29T00:37:05;3.17;;;1.80;;
12871;SDS011;6504;53.766;9.626;2022-07-29T00:39:33;2.77;;;1.53;;
12871;SDS011;6504;53.766;9.626;2022-07-29T00:42:02;2.20;;;1.80;;
12871;SDS011;6504;53.766;9.626;2022-07-29T00:44:32;2.93;;;2.03;;
12871;SDS011;6504;53.766;9.626;2022-07-29T00:47:04;2.57;;;1.60;;
12871;SDS011;6504;53.766;9.626;2022-07-29T00:49:33;3.00;;;1.80;;
12871;SDS011;6504;53.766;9.626;2022-07-29T00:52:01;3.10;;;1.90;;
12871;SDS011;6504;53.766;9.626;2022-07-29T00:54:30;3.57;;;2.03;;
12871;SDS011;6504;53.766;9.626;2022-07-29T00:56:59;2.97;;;1.90;;
12871;SDS011;6504;53.766;9.626;2022-07-29T00:59:33;1.83;;;1.43;;
12871;SDS011;6504;53.766;9.626;2022-07-29T01:02:01;2.20;;;2.00;;
12871;SDS011;6504;53.766;9.626;2022-07-29T01:04:32;3.20;;;2.10;;
12871;SDS011;6504;53.766;9.626;2022-07-29T01:07:02;3.47;;;1.73;;
12871;SDS011;6504;53.766;9.626;2022-07-29T01:09:34;2.23;;;1.70;;
12871;SDS011;6504;53.766;9.626;2022-07-29T01:12:12;2.40;;;1.83;;
12871;SDS011;6504;53.766;9.626;2022-07-29T01:14:43;1.83;;;1.60;;
12871;SDS011;6504;53.766;9.626;2022-07-29T01:17:13;2.10;;;1.53;;
12871;SDS011;6504;53.766;9.626;2022-07-29T01:19:52;2.23;;;1.60;;
12871;SDS011;6504;53.766;9.626;2022-07-29T01:22:37;2.60;;;1.93;;
12871;SDS011;6504;53.766;9.626;2022-07-29T01:25:25;2.30;;;1.70;;
12871;SDS011;6504;53.766;9.626;2022-07-29T01:28:16;2.43;;;2.00;;
12871;SDS011;6504;53.766;9.626;2022-07-29T01:30:58;2.23;;;1.70;;
12871;SDS011;6504;53.766;9.626;2022-07-29T01:33:29;2.27;;;1.80;;
12871;SDS011;6504;53.766;9.626;2022-07-29T01:36:23;2.40;;;2.10;;
12871;SDS011;6504;53.766;9.626;2022-07-29T01:39:03;2.50;;;2.03;;
12871;SDS011;6504;53.766;9.626;2022-07-29T01:41:35;3.70;;;1.73;;
12871;SDS011;6504;53.766;9.626;2022-07-29T01:44:13;3.43;;;2.30;;
12871;SDS011;6504;53.766;9.626;2022-07-29T01:46:49;4.00;;;2.30;;
12871;SDS011;6504;53.766;9.626;2022-07-29T01:49:21;2.80;;;2.00;;
12871;SDS011;6504;53.766;9.626;2022-07-29T01:51:56;3.17;;;2.13;;
12871;SDS011;6504;53.766;9.626;2022-07-29T01:54:32;3.60;;;2.20;;
12871;SDS011;6504;53.766;9.626;2022-07-29T01:57:15;3.80;;;2.47;;
12871;SDS011;6504;53.766;9.626;2022-07-29T01:59:47;2.30;;;2.03;;
12871;SDS011;6504;53.766;9.626;2022-07-29T02:02:17;4.07;;;2.40;;
12871;SDS011;6504;53.766;9.626;2022-07-29T02:04:47;2.57;;;2.37;;
12871;SDS011;6504;53.766;9.626;2022-07-29T02:07:18;3.23;;;2.80;;
12871;SDS011;6504;53.766;9.626;2022-07-29T02:09:49;3.43;;;2.70;;
12871;SDS011;6504;53.766;9.626;2022-07-29T02:12:18;2.97;;;2.67;;
12871;SDS011;6504;53.766;9.626;2022-07-29T02:14:50;3.80;;;2.90;;
12871;SDS011;6504;53.766;9.626;2022-07-29T02:17:21;2.83;;;2.30;;
12871;SDS011;6504;53.766;9.626;2022-07-29T02:19:52;3.73;;;2.60;;
12871;SDS011;6504;53.766;9.626;2022-07-29T02:22:26;2.73;;;2.53;;
12871;SDS011;6504;53.766;9.626;2022-07-29T02:24:57;3.83;;;2.97;;
12871;SDS011;6504;53.766;9.626;2022-07-29T02:27:29;3.43;;;2.80;;
12871;SDS011;6504;53.766;9.626;2022-07-29T02:29:59;4.03;;;2.87;;
12871;SDS011;6504;53.766;9.626;2022-07-29T02:32:29;3.33;;;2.80;;
12871;SDS011;6504;53.766;9.626;2022-07-29T02:35:06;5.60;;;2.70;;
12871;SDS011;6504;53.766;9.626;2022-07-29T02:37:39;3.53;;;2.80;;
12871;SDS011;6504;53.766;9.626;2022-07-29T02:40:11;3.97;;;2.60;;
12871;SDS011;6504;53.766;9.626;2022-07-29T02:42:42;3.53;;;2.83;;
12871;SDS011;6504;53.766;9.626;2022-07-29T02:45:12;3.33;;;2.63;;
12871;SDS011;6504;53.766;9.626;2022-07-29T02:47:41;3.83;;;2.80;;
12871;SDS011;6504;53.766;9.626;2022-07-29T02:50:15;3.10;;;2.40;;
12871;SDS011;6504;53.766;9.626;2022-07-29T02:52:51;3.60;;;2.90;;
12871;SDS011;6504;53.766;9.626;2022-07-29T02:55:26;2.90;;;2.70;;
12871;SDS011;6504;53.766;9.626;2022-07-29T02:57:59;2.90;;;2.50;;
12871;SDS011;6504;53.766;9.626;2022-07-29T03:00:31;3.70;;;2.57;;
12871;SDS011;6504;53.766;9.626;2022-07-29T03:03:04;4.17;;;2.90;;
12871;SDS011;6504;53.766;9.626;2022-07-29T03:05:40;4.43;;;3.00;;
12871;SDS011;6504;53.766;9.626;2022-07-29T03:08:11;4.77;;;3.30;;
12871;SDS011;6504;53.766;9.626;2022-07-29T03:10:43;3.90;;;3.03;;
12871;SDS011;6504;53.766;9.626;2022-07-29T03:13:16;2.87;;;2.67;;
12871;SDS011;6504;53.766;9.626;2022-07-29T03:15:47;3.37;;;3.00;;
12871;SDS011;6504;53.766;9.626;2022-07-29T03:18:16;3.97;;;2.73;;
12871;SDS011;6504;53.766;9.626;2022-07-29T03:20:44;3.90;;;2.90;;
12871;SDS011;6504;53.766;9.626;2022-07-29T03:23:14;3.60;;;2.50;;
12871;SDS011;6504;53.766;9.626;2022-07-29T03:25:47;2.77;;;2.43;;
12871;SDS011;6504;53.766;9.626;2022-07-29T03:28:15;3.50;;;2.57;;
12871;SDS011;6504;53.766;9.626;2022-07-29T03:30:44;3.13;;;2.70;;
12871;SDS011;6504;53.766;9.626;2022-07-29T03:33:14;2.80;;;2.60;;
12871;SDS011;6504;53.766;9.626;2022-07-29T03:35:47;3.00;;;2.70;;
12871;SDS011;6504;53.766;9.626;2022-07-29T03:38:15;3.47;;;2.90;;
12871;SDS011;6504;53.766;9.626;2022-07-29T03:40:44;3.87;;;2.87;;
12871;SDS011;6504;53.766;9.626;2022-07-29T03:43:18;5.67;;;3.20;;
12871;SDS011;6504;53.766;9.626;2022-07-29T03:45:52;4.10;;;2.70;;
12871;SDS011;6504;53.766;9.626;2022-07-29T03:48:23;4.53;;;3.03;;
12871;SDS011;6504;53.766;9.626;2022-07-29T03:50:54;2.97;;;2.67;;
12871;SDS011;6504;53.766;9.626;2022-07-29T03:53:22;3.23;;;2.93;;
12871;SDS011;6504;53.766;9.626;2022-07-29T03:55:52;3.87;;;2.83;;
12871;SDS011;6504;53.766;9.626;2022-07-29T03:58:26;4.30;;;3.03;;
12871;SDS011;6504;53.766;9.626;2022-07-29T04:00:55;4.40;;;3.30;;
12871;SDS011;6504;53.766;9.626;2022-07-29T04:03:26;3.63;;;3.20;;
12871;SDS011;6504;53.766;9.626;2022-07-29T04:05:59;4.63;;;3.87;;
12871;SDS011;6504;53.766;9.626;2022-07-29T04:08:28;4.07;;;3.40;;
12871;SDS011;6504;53.766;9.626;2022-07-29T04:10:56;3.63;;;3.20;;
12871;SDS011;6504;53.766;9.626;2022-07-29T04:13:25;4.73;;;3.20;;
12871;SDS011;6504;53.766;9.626;2022-07-29T04:15:56;3.70;;;2.93;;
12871;SDS011;6504;53.766;9.626;2022-07-29T04:18:24;5.30;;;3.43;;
12871;SDS011;6504;53.766;9.626;2022-07-29T04:20:54;4.37;;;2.87;;
12871;SDS011;6504;53.766;9.626;2022-07-29T04:23:22;4.27;;;2.73;;
12871;SDS011;6504;53.766;9.626;2022-07-29T04:25:50;5.23;;;3.23;;
12871;SDS011;6504;53.766;9.626;2022-07-29T04:28:18;4.03;;;3.30;;
12871;SDS011;6504;53.766;9.626;2022-07-29T04:30:46;4.70;;;3.23;;
12871;SDS011;6504;53.766;9.626;2022-07-29T04:33:14;4.67;;;3.03;;
12871;SDS011;6504;53.766;9.626;2022-07-29T04:35:49;4.17;;;2.83;;
12871;SDS011;6504;53.766;9.626;2022-07-29T04:38:20;3.30;;;2.90;;
12871;SDS011;6504;53.766;9.626;2022-07-29T04:40:51;2.83;;;2.63;;
12871;SDS011;6504;53.766;9.626;2022-07-29T04:43:21;4.00;;;2.83;;
12871;SDS011;6504;53.766;9.626;2022-07-29T04:45:50;3.90;;;2.83;;
12871;SDS011;6504;53.766;9.626;2022-07-29T04:48:20;3.73;;;2.50;;
12871;SDS011;6504;53.766;9.626;2022-07-29T04:50:55;4.30;;;2.60;;
12871;SDS011;6504;53.766;9.626;2022-07-29T04:53:26;5.93;;;2.73;;
12871;SDS011;6504;53.766;9.626;2022-07-29T04:55:54;4.87;;;2.80;;
12871;SDS011;6504;53.766;9.626;2022-07-29T04:58:22;4.40;;;3.10;;
12871;SDS011;6504;53.766;9.626;2022-07-29T05:00:51;3.40;;;2.70;;
12871;SDS011;6504;53.766;9.626;2022-07-29T05:03:19;5.37;;;3.20;;
12871;SDS011;6504;53.766;9.626;2022-07-29T05:05:47;4.63;;;2.93;;
12871;SDS011;6504;53.766;9.626;2022-07-29T05:08:16;4.10;;;2.83;;
12871;SDS011;6504;53.766;9.626;2022-07-29T05:10:47;5.00;;;2.87;;
12871;SDS011;6504;53.766;9.626;2022-07-29T05:13:15;4.23;;;2.90;;
12871;SDS011;6504;53.766;9.626;2022-07-29T05:15:43;4.87;;;2.93;;
12871;SDS011;6504;53.766;9.626;2022-07-29T05:18:12;3.80;;;2.90;;
12871;SDS011;6504;53.766;9.626;2022-07-29T05:20:40;3.77;;;3.03;;
12871;SDS011;6504;53.766;9.626;2022-07-29T05:23:11;3.40;;;2.70;;
12871;SDS011;6504;53.766;9.626;2022-07-29T05:25:42;4.03;;;2.53;;
12871;SDS011;6504;53.766;9.626;2022-07-29T05:28:10;3.07;;;2.60;;
12871;SDS011;6504;53.766;9.626;2022-07-29T05:30:41;3.70;;;2.90;;
12871;SDS011;6504;53.766;9.626;2022-07-29T05:33:10;3.37;;;3.07;;
12871;SDS011;6504;53.766;9.626;2022-07-29T05:35:58;6.50;;;3.37;;
12871;SDS011;6504;53.766;9.626;2022-07-29T05:38:34;3.60;;;3.10;;
12871;SDS011;6504;53.766;9.626;2022-07-29T05:41:04;3.93;;;2.83;;
12871;SDS011;6504;53.766;9.626;2022-07-29T05:43:34;5.00;;;3.00;;
12871;SDS011;6504;53.766;9.626;2022-07-29T05:46:03;5.00;;;2.83;;
12871;SDS011;6504;53.766;9.626;2022-07-29T05:48:31;3.77;;;2.77;;
12871;SDS011;6504;53.766;9.626;2022-07-29T05:51:02;6.67;;;3.10;;
12871;SDS011;6504;53.766;9.626;2022-07-29T05:53:31;5.90;;;3.00;;
12871;SDS011;6504;53.766;9.626;2022-07-29T05:56:04;4.93;;;2.90;;
12871;SDS011;6504;53.766;9.626;2022-07-29T05:58:33;4.53;;;3.07;;
12871;SDS011;6504;53.766;9.626;2022-07-29T06:01:05;4.60;;;3.63;;
12871;SDS011;6504;53.766;9.626;2022-07-29T06:03:33;4.17;;;2.67;;
12871;SDS011;6504;53.766;9.626;2022-07-29T06:06:03;5.53;;;3.17;;
12871;SDS011;6504;53.766;9.626;2022-07-29T06:08:38;6.50;;;3.50;;
12871;SDS011;6504;53.766;9.626;2022-07-29T06:11:07;5.20;;;2.83;;
12871;SDS011;6504;53.766;9.626;2022-07-29T06:13:36;4.90;;;3.03;;
12871;SDS011;6504;53.766;9.626;2022-07-29T06:16:08;3.33;;;2.70;;
12871;SDS011;6504;53.766;9.626;2022-07-29T06:18:41;5.47;;;2.90;;
12871;SDS011;6504;53.766;9.626;2022-07-29T06:21:09;4.93;;;2.90;;
12871;SDS011;6504;53.766;9.626;2022-07-29T06:23:37;4.00;;;2.87;;
12871;SDS011;6504;53.766;9.626;2022-07-29T06:26:07;4.10;;;2.87;;
12871;SDS011;6504;53.766;9.626;2022-07-29T06:28:36;5.47;;;2.80;;
12871;SDS011;6504;53.766;9.626;2022-07-29T06:31:07;5.10;;;3.00;;
12871;SDS011;6504;53.766;9.626;2022-07-29T06:33:35;4.37;;;2.97;;
12871;SDS011;6504;53.766;9.626;2022-07-29T06:36:04;4.20;;;2.80;;
12871;SDS011;6504;53.766;9.626;2022-07-29T06:38:37;4.80;;;2.90;;
12871;SDS011;6504;53.766;9.626;2022-07-29T06:41:12;7.07;;;3.20;;
12871;SDS011;6504;53.766;9.626;2022-07-29T06:43:42;4.20;;;2.60;;
12871;SDS011;6504;53.766;9.626;2022-07-29T06:46:19;4.00;;;2.53;;
12871;SDS011;6504;53.766;9.626;2022-07-29T06:48:49;4.33;;;2.70;;
12871;SDS011;6504;53.766;9.626;2022-07-29T06:51:19;5.30;;;2.30;;
12871;SDS011;6504;53.766;9.626;2022-07-29T06:53:50;3.90;;;2.50;;
12871;SDS011;6504;53.766;9.626;2022-07-29T06:56:30;4.57;;;2.70;;
12871;SDS011;6504;53.766;9.626;2022-07-29T06:59:05;4.37;;;2.77;;
12871;SDS011;6504;53.766;9.626;2022-07-29T07:01:35;4.90;;;2.47;;
12871;SDS011;6504;53.766;9.626;2022-07-29T07:04:04;4.83;;;3.00;;
12871;SDS011;6504;53.766;9.626;2022-07-29T07:06:33;4.03;;;3.10;;
12871;SDS011;6504;53.766;9.626;2022-07-29T07:09:01;3.97;;;2.63;;
12871;SDS011;6504;53.766;9.626;2022-07-29T07:11:33;4.00;;;2.53;;
12871;SDS011;6504;53.766;9.626;2022-07-29T07:14:02;5.60;;;3.20;;
12871;SDS011;6504;53.766;9.626;2022-07-29T07:16:30;4.20;;;2.40;;
12871;SDS011;6504;53.766;9.626;2022-07-29T07:18:59;3.67;;;2.57;;
12871;SDS011;6504;53.766;9.626;2022-07-29T07:21:27;5.13;;;2.70;;
12871;SDS011;6504;53.766;9.626;2022-07-29T07:23:58;4.80;;;2.70;;
12871;SDS011;6504;53.766;9.626;2022-07-29T07:26:27;5.00;;;2.90;;
12871;SDS011;6504;53.766;9.626;2022-07-29T07:28:56;4.37;;;2.60;;
12871;SDS011;6504;53.766;9.626;2022-07-29T07:31:28;4.43;;;2.80;;
12871;SDS011;6504;53.766;9.626;2022-07-29T07:33:56;3.97;;;2.87;;
12871;SDS011;6504;53.766;9.626;2022-07-29T07:36:24;3.57;;;2.23;;
12871;SDS011;6504;53.766;9.626;2022-07-29T07:38:52;3.60;;;2.40;;
12871;SDS011;6504;53.766;9.626;2022-07-29T07:41:21;4.30;;;2.60;;
12871;SDS011;6504;53.766;9.626;2022-07-29T07:44:00;4.17;;;2.37;;
12871;SDS011;6504;53.766;9.626;2022-07-29T07:46:31;5.00;;;2.97;;
12871;SDS011;6504;53.766;9.626;2022-07-29T07:48:59;4.80;;;2.83;;
12871;SDS011;6504;53.766;9.626;2022-07-29T07:51:27;3.50;;;2.40;;
12871;SDS011;6504;53.766;9.626;2022-07-29T07:53:58;7.47;;;2.97;;
12871;SDS011;6504;53.766;9.626;2022-07-29T07:56:28;5.83;;;2.97;;
12871;SDS011;6504;53.766;9.626;2022-07-29T07:59:02;5.10;;;2.80;;
12871;SDS011;6504;53.766;9.626;2022-07-29T08:01:30;4.70;;;2.67;;
12871;SDS011;6504;53.766;9.626;2022-07-29T08:04:18;7.23;;;3.10;;
12871;SDS011;6504;53.766;9.626;2022-07-29T08:06:53;4.50;;;2.47;;
12871;SDS011;6504;53.766;9.626;2022-07-29T08:09:22;3.53;;;2.47;;
12871;SDS011;6504;53.766;9.626;2022-07-29T08:11:58;5.57;;;2.80;;
12871;SDS011;6504;53.766;9.626;2022-07-29T08:14:31;6.20;;;2.80;;
12871;SDS011;6504;53.766;9.626;2022-07-29T08:17:02;5.27;;;2.50;;
12871;SDS011;6504;53.766;9.626;2022-07-29T08:19:31;5.57;;;2.90;;
12871;SDS011;6504;53.766;9.626;2022-07-29T08:21:59;4.67;;;2.90;;
12871;SDS011;6504;53.766;9.626;2022-07-29T08:24:30;5.70;;;2.97;;
12871;SDS011;6504;53.766;9.626;2022-07-29T08:27:14;3.97;;;2.80;;
12871;SDS011;6504;53.766;9.626;2022-07-29T08:30:06;4.30;;;2.83;;
12871;SDS011;6504;53.766;9.626;2022-07-29T08:32:36;5.33;;;2.80;;
12871;SDS011;6504;53.766;9.626;2022-07-29T08:35:25;4.50;;;3.17;;
12871;SDS011;6504;53.766;9.626;2022-07-29T08:38:00;6.37;;;2.97;;
12871;SDS011;6504;53.766;9.626;2022-07-29T08:40:29;4.17;;;2.83;;
12871;SDS011;6504;53.766;9.626;2022-07-29T08:42:58;4.50;;;2.83;;
12871;SDS011;6504;53.766;9.626;2022-07-29T08:45:35;6.10;;;3.10;;
12871;SDS011;6504;53.766;9.626;2022-07-29T08:48:13;3.63;;;2.90;;
12871;SDS011;6504;53.766;9.626;2022-07-29T08:50:43;5.23;;;2.87;;
12871;SDS011;6504;53.766;9.626;2022-07-29T08:53:16;6.63;;;3.47;;
12871;SDS011;6504;53.766;9.626;2022-07-29T08:55:45;5.93;;;2.70;;
12871;SDS011;6504;53.766;9.626;2022-07-29T08:58:17;4.57;;;2.80;;
12871;SDS011;6504;53.766;9.626;2022-07-29T09:00:52;5.90;;;2.87;;
12871;SDS011;6504;53.766;9.626;2022-07-29T09:03:22;4.57;;;2.90;;
12871;SDS011;6504;53.766;9.626;2022-07-29T09:05:51;5.70;;;2.93;;
12871;SDS011;6504;53.766;9.626;2022-07-29T09:08:23;8.40;;;3.27;;
12871;SDS011;6504;53.766;9.626;2022-07-29T09:10:52;6.17;;;2.70;;
12871;SDS011;6504;53.766;9.626;2022-07-29T09:13:21;4.10;;;2.87;;
12871;SDS011;6504;53.766;9.626;2022-07-29T09:15:53;5.97;;;2.93;;
12871;SDS011;6504;53.766;9.626;2022-07-29T09:18:34;4.33;;;3.27;;
12871;SDS011;6504;53.766;9.626;2022-07-29T09:21:04;3.43;;;2.70;;
12871;SDS011;6504;53.766;9.626;2022-07-29T09:23:59;5.40;;;3.00;;
12871;SDS011;6504;53.766;9.626;2022-07-29T09:26:35;5.30;;;2.90;;
12871;SDS011;6504;53.766;9.626;2022-07-29T09:29:14;4.73;;;3.07;;
12871;SDS011;6504;53.766;9.626;2022-07-29T09:31:44;5.20;;;2.53;;
12871;SDS011;6504;53.766;9.626;2022-07-29T09:34:15;5.30;;;3.00;;
12871;SDS011;6504;53.766;9.626;2022-07-29T09:36:45;5.70;;;2.93;;
12871;SDS011;6504;53.766;9.626;2022-07-29T09:39:26;5.50;;;3.00;;
12871;SDS011;6504;53.766;9.626;2022-07-29T09:41:57;6.10;;;2.70;;
12871;SDS011;6504;53.766;9.626;2022-07-29T09:44:45;5.20;;;3.00;;
12871;SDS011;6504;53.766;9.626;2022-07-29T09:47:17;6.33;;;3.13;;
12871;SDS011;6504;53.766;9.626;2022-07-29T09:49:52;4.43;;;2.57;;
12871;SDS011;6504;53.766;9.626;2022-07-29T09:52:24;4.80;;;2.83;;
12871;SDS011;6504;53.766;9.626;2022-07-29T09:55:05;4.50;;;3.10;;
12871;SDS011;6504;53.766;9.626;2022-07-29T09:57:43;5.07;;;3.00;;
12871;SDS011;6504;53.766;9.626;2022-07-29T10:00:15;5.57;;;2.97;;
12871;SDS011;6504;53.766;9.626;2022-07-29T10:02:46;5.13;;;2.73;;
12871;SDS011;6504;53.766;9.626;2022-07-29T10:05:21;4.63;;;2.60;;
12871;SDS011;6504;53.766;9.626;2022-07-29T10:07:51;4.47;;;2.53;;
12871;SDS011;6504;53.766;9.626;2022-07-29T10:10:26;4.00;;;2.80;;
12871;SDS011;6504;53.766;9.626;2022-07-29T10:12:56;4.37;;;2.40;;
12871;SDS011;6504;53.766;9.626;2022-07-29T10:15:34;3.70;;;2.50;;
12871;SDS011;6504;53.766;9.626;2022-07-29T10:18:07;3.77;;;2.30;;
12871;SDS011;6504;53.766;9.626;2022-07-29T10:20:36;4.50;;;2.50;;
12871;SDS011;6504;53.766;9.626;2022-07-29T10:23:05;3.17;;;2.40;;
12871;SDS011;6504;53.766;9.626;2022-07-29T10:25:33;3.93;;;2.50;;
12871;SDS011;6504;53.766;9.626;2022-07-29T10:28:05;3.90;;;2.27;;
12871;SDS011;6504;53.766;9.626;2022-07-29T10:30:36;3.60;;;2.50;;
12871;SDS011;6504;53.766;9.626;2022-07-29T10:33:10;3.53;;;2.10;;
12871;SDS011;6504;53.766;9.626;2022-07-29T10:35:59;4.07;;;2.20;;
12871;SDS011;6504;53.766;9.626;2022-07-29T10:38:42;5.13;;;2.30;;
12871;SDS011;6504;53.766;9.626;2022-07-29T10:41:36;5.50;;;2.03;;
12871;SDS011;6504;53.766;9.626;2022-07-29T10:44:16;3.20;;;2.00;;
12871;SDS011;6504;53.766;9.626;2022-07-29T10:46:52;4.70;;;2.53;;
12871;SDS011;6504;53.766;9.626;2022-07-29T10:49:22;4.37;;;1.97;;
12871;SDS011;6504;53.766;9.626;2022-07-29T10:51:57;2.93;;;2.10;;
12871;SDS011;6504;53.766;9.626;2022-07-29T10:54:39;4.57;;;2.03;;
12871;SDS011;6504;53.766;9.626;2022-07-29T10:57:23;5.10;;;2.40;;
12871;SDS011;6504;53.766;9.626;2022-07-29T11:00:27;5.20;;;2.00;;
12871;SDS011;6504;53.766;9.626;2022-07-29T11:03:01;3.90;;;2.10;;
12871;SDS011;6504;53.766;9.626;2022-07-29T11:05:53;3.03;;;1.97;;
12871;SDS011;6504;53.766;9.626;2022-07-29T11:08:28;3.67;;;1.90;;
12871;SDS011;6504;53.766;9.626;2022-07-29T11:14:03;3.73;;;2.10;;
12871;SDS011;6504;53.766;9.626;2022-07-29T11:19:50;3.13;;;2.00;;
12871;SDS011;6504;53.766;9.626;2022-07-29T11:25:12;3.27;;;1.60;;
12871;SDS011;6504;53.766;9.626;2022-07-29T11:27:42;2.57;;;1.77;;
12871;SDS011;6504;53.766;9.626;2022-07-29T11:30:13;3.47;;;1.93;;
12871;SDS011;6504;53.766;9.626;2022-07-29T11:32:42;3.50;;;1.70;;
12871;SDS011;6504;53.766;9.626;2022-07-29T11:35:16;5.73;;;2.10;;
12871;SDS011;6504;53.766;9.626;2022-07-29T11:38:26;2.60;;;1.77;;
12871;SDS011;6504;53.766;9.626;2022-07-29T11:43:51;3.93;;;2.10;;
12871;SDS011;6504;53.766;9.626;2022-07-29T11:49:12;3.70;;;1.80;;
12871;SDS011;6504;53.766;9.626;2022-07-29T11:51:52;2.57;;;1.80;;
12871;SDS011;6504;53.766;9.626;2022-07-29T11:54:24;3.83;;;1.73;;
12871;SDS011;6504;53.766;9.626;2022-07-29T11:56:53;2.37;;;1.60;;
12871;SDS011;6504;53.766;9.626;2022-07-29T11:59:22;3.27;;;1.63;;
12871;SDS011;6504;53.766;9.626;2022-07-29T12:02:00;2.37;;;1.60;;
12871;SDS011;6504;53.766;9.626;2022-07-29T12:04:48;3.07;;;1.60;;
12871;SDS011;6504;53.766;9.626;2022-07-29T12:07:25;2.77;;;1.70;;
12871;SDS011;6504;53.766;9.626;2022-07-29T12:10:02;4.23;;;1.60;;
12871;SDS011;6504;53.766;9.626;2022-07-29T12:12:48;4.03;;;1.70;;
12871;SDS011;6504;53.766;9.626;2022-07-29T12:15:25;2.93;;;1.77;;
12871;SDS011;6504;53.766;9.626;2022-07-29T12:18:15;3.80;;;1.80;;
12871;SDS011;6504;53.766;9.626;2022-07-29T12:20:44;3.53;;;1.80;;
12871;SDS011;6504;53.766;9.626;2022-07-29T12:23:16;3.63;;;1.90;;
12871;SDS011;6504;53.766;9.626;2022-07-29T12:25:45;4.53;;;1.70;;
12871;SDS011;6504;53.766;9.626;2022-07-29T12:28:15;3.57;;;1.60;;
12871;SDS011;6504;53.766;9.626;2022-07-29T12:30:52;3.60;;;1.63;;
12871;SDS011;6504;53.766;9.626;2022-07-29T12:33:21;4.33;;;1.73;;
12871;SDS011;6504;53.766;9.626;2022-07-29T12:35:51;2.87;;;1.50;;
12871;SDS011;6504;53.766;9.626;2022-07-29T12:38:42;2.53;;;1.60;;
12871;SDS011;6504;53.766;9.626;2022-07-29T12:41:11;5.23;;;2.10;;
12871;SDS011;6504;53.766;9.626;2022-07-29T12:43:51;3.67;;;1.70;;
12871;SDS011;6504;53.766;9.626;2022-07-29T12:46:20;2.87;;;1.60;;
12871;SDS011;6504;53.766;9.626;2022-07-29T12:48:55;2.87;;;1.37;;
12871;SDS011;6504;53.766;9.626;2022-07-29T12:51:28;3.63;;;1.90;;
12871;SDS011;6504;53.766;9.626;2022-07-29T12:54:04;2.63;;;1.70;;
12871;SDS011;6504;53.766;9.626;2022-07-29T12:56:43;3.17;;;1.70;;
12871;SDS011;6504;53.766;9.626;2022-07-29T12:59:12;3.53;;;1.73;;
12871;SDS011;6504;53.766;9.626;2022-07-29T13:01:42;3.17;;;1.83;;
12871;SDS011;6504;53.766;9.626;2022-07-29T13:04:25;2.40;;;1.73;;
12871;SDS011;6504;53.766;9.626;2022-07-29T13:07:00;3.97;;;1.63;;
12871;SDS011;6504;53.766;9.626;2022-07-29T13:09:38;4.33;;;1.73;;
12871;SDS011;6504;53.766;9.626;2022-07-29T13:12:12;2.87;;;1.60;;
12871;SDS011;6504;53.766;9.626;2022-07-29T13:14:41;4.57;;;1.97;;
12871;SDS011;6504;53.766;9.626;2022-07-29T13:17:13;4.50;;;1.63;;
12871;SDS011;6504;53.766;9.626;2022-07-29T13:19:43;4.30;;;1.50;;
12871;SDS011;6504;53.766;9.626;2022-07-29T13:22:16;4.53;;;1.90;;
12871;SDS011;6504;53.766;9.626;2022-07-29T13:24:46;4.70;;;1.87;;
12871;SDS011;6504;53.766;9.626;2022-07-29T13:27:19;3.80;;;1.80;;
12871;SDS011;6504;53.766;9.626;2022-07-29T13:29:49;3.93;;;2.00;;
12871;SDS011;6504;53.766;9.626;2022-07-29T13:32:22;3.20;;;1.70;;
12871;SDS011;6504;53.766;9.626;2022-07-29T13:34:54;3.10;;;1.80;;
12871;SDS011;6504;53.766;9.626;2022-07-29T13:37:22;3.80;;;1.90;;
12871;SDS011;6504;53.766;9.626;2022-07-29T13:39:52;4.37;;;1.90;;
12871;SDS011;6504;53.766;9.626;2022-07-29T13:42:22;3.53;;;1.73;;
12871;SDS011;6504;53.766;9.626;2022-07-29T13:44:51;4.10;;;1.80;;
12871;SDS011;6504;53.766;9.626;2022-07-29T13:47:19;3.87;;;1.70;;
12871;SDS011;6504;53.766;9.626;2022-07-29T13:49:58;5.87;;;2.03;;
12871;SDS011;6504;53.766;9.626;2022-07-29T13:52:31;3.67;;;2.10;;
12871;SDS011;6504;53.766;9.626;2022-07-29T13:55:01;6.17;;;1.90;;
12871;SDS011;6504;53.766;9.626;2022-07-29T13:57:35;5.87;;;2.10;;
12871;SDS011;6504;53.766;9.626;2022-07-29T14:00:03;3.37;;;2.10;;
12871;SDS011;6504;53.766;9.626;2022-07-29T14:02:35;3.07;;;2.07;;
12871;SDS011;6504;53.766;9.626;2022-07-29T14:05:04;4.80;;;1.93;;
12871;SDS011;6504;53.766;9.626;2022-07-29T14:07:37;3.87;;;1.90;;
12871;SDS011;6504;53.766;9.626;2022-07-29T14:10:06;4.77;;;2.10;;
12871;SDS011;6504;53.766;9.626;2022-07-29T14:12:39;4.97;;;1.80;;
12871;SDS011;6504;53.766;9.626;2022-07-29T14:15:08;4.87;;;1.90;;
12871;SDS011;6504;53.766;9.626;2022-07-29T14:17:36;3.43;;;1.87;;
12871;SDS011;6504;53.766;9.626;2022-07-29T14:20:05;3.40;;;2.00;;
12871;SDS011;6504;53.766;9.626;2022-07-29T14:22:33;3.53;;;1.80;;
12871;SDS011;6504;53.766;9.626;2022-07-29T14:25:08;3.83;;;2.00;;
12871;SDS011;6504;53.766;9.626;2022-07-29T14:27:42;5.43;;;1.90;;
12871;SDS011;6504;53.766;9.626;2022-07-29T14:30:12;5.47;;;1.97;;
12871;SDS011;6504;53.766;9.626;2022-07-29T14:32:42;4.03;;;1.77;;
12871;SDS011;6504;53.766;9.626;2022-07-29T14:35:10;4.53;;;1.80;;
12871;SDS011;6504;53.766;9.626;2022-07-29T14:37:40;6.17;;;1.97;;
12871;SDS011;6504;53.766;9.626;2022-07-29T14:40:09;3.83;;;1.70;;
12871;SDS011;6504;53.766;9.626;2022-07-29T14:42:37;3.90;;;1.77;;
12871;SDS011;6504;53.766;9.626;2022-07-29T14:45:08;4.23;;;2.07;;
12871;SDS011;6504;53.766;9.626;2022-07-29T14:47:37;3.10;;;1.80;;
12871;SDS011;6504;53.766;9.626;2022-07-29T14:50:06;3.50;;;2.03;;
12871;SDS011;6504;53.766;9.626;2022-07-29T14:52:37;4.70;;;2.00;;
12871;SDS011;6504;53.766;9.626;2022-07-29T14:55:05;3.77;;;1.90;;
12871;SDS011;6504;53.766;9.626;2022-07-29T14:57:45;3.57;;;2.00;;
12871;SDS011;6504;53.766;9.626;2022-07-29T15:00:18;2.93;;;1.90;;
12871;SDS011;6504;53.766;9.626;2022-07-29T15:02:47;4.87;;;2.20;;
12871;SDS011;6504;53.766;9.626;2022-07-29T15:05:27;2.33;;;2.07;;
12871;SDS011;6504;53.766;9.626;2022-07-29T15:07:55;4.73;;;2.27;;
12871;SDS011;6504;53.766;9.626;2022-07-29T15:10:29;4.70;;;1.97;;
12871;SDS011;6504;53.766;9.626;2022-07-29T15:12:57;4.53;;;1.90;;
12871;SDS011;6504;53.766;9.626;2022-07-29T15:15:29;2.67;;;2.03;;
12871;SDS011;6504;53.766;9.626;2022-07-29T15:17:57;3.67;;;2.00;;
12871;SDS011;6504;53.766;9.626;2022-07-29T15:20:26;4.10;;;2.20;;
12871;SDS011;6504;53.766;9.626;2022-07-29T15:22:54;5.90;;;2.10;;
12871;SDS011;6504;53.766;9.626;2022-07-29T15:25:22;106.33;;;11.87;;
12871;SDS011;6504;53.766;9.626;2022-07-29T15:27:53;178.73;;;18.03;;
12871;SDS011;6504;53.766;9.626;2022-07-29T15:30:26;24.73;;;4.77;;
12871;SDS011;6504;53.766;9.626;2022-07-29T15:33:00;5.70;;;2.20;;
12871;SDS011;6504;53.766;9.626;2022-07-29T15:35:30;5.67;;;2.30;;
12871;SDS011;6504;53.766;9.626;2022-07-29T15:38:05;5.33;;;1.93;;
12871;SDS011;6504;53.766;9.626;2022-07-29T15:40:35;3.93;;;1.90;;
12871;SDS011;6504;53.766;9.626;2022-07-29T15:43:09;3.47;;;2.07;;
12871;SDS011;6504;53.766;9.626;2022-07-29T15:45:38;5.03;;;2.03;;
12871;SDS011;6504;53.766;9.626;2022-07-29T15:48:36;4.87;;;2.10;;